Time;durP1;ratioP1;P1;durP2;ratioP2;P2;SDS_P1;SDS_P2;PMS_P1;PMS_P2;Temp;Humidity;BMP_temperature;BMP_pressure;BME280_temperature;BME280_humidity;BME280_pressure;Samples;Min_cycle;Max_cycle;Signal;HPM_P1;HPM_P2
2022/09/16 00:00:47;;;;;;;5.23;2.00;;;14.70;99.90;;;;;;5114429;28;20208;-87
2022/09/16 00:03:17;;;;;;;2.27;1.30;;;14.70;99.90;;;;;;5114177;28;20273;-87
2022/09/16 00:05:49;;;;;;;6.23;1.40;;;14.70;99.90;;;;;;5114428;28;20190;-89
2022/09/16 00:08:19;;;;;;;3.83;1.27;;;14.70;99.90;;;;;;5114134;28;20234;-87
2022/09/16 00:10:47;;;;;;;7.83;1.60;;;14.70;99.90;;;;;;5114365;28;20251;-86
2022/09/16 00:13:20;;;;;;;4.60;1.43;;;14.80;99.90;;;;;;5114187;28;20216;-86
2022/09/16 00:16:19;;;;;;;4.50;1.63;;;14.90;99.90;;;;;;5114156;28;20230;-87
2022/09/16 00:18:54;;;;;;;3.23;1.30;;;15.00;99.90;;;;;;5114660;28;20195;-86
2022/09/16 00:21:25;;;;;;;5.13;1.70;;;14.80;99.90;;;;;;5114242;28;20558;-87
2022/09/16 00:23:56;;;;;;;5.03;1.55;;;14.70;99.90;;;;;;5113906;28;20444;-87
2022/09/16 00:26:29;;;;;;;6.50;1.50;;;14.70;99.90;;;;;;5114313;28;20197;-87
2022/09/16 00:28:57;;;;;;;4.53;1.30;;;14.70;99.90;;;;;;5114200;28;20671;-86
2022/09/16 00:31:30;;;;;;;5.70;1.50;;;14.70;99.90;;;;;;5116844;28;20191;-88
2022/09/16 00:33:58;;;;;;;5.23;1.53;;;14.60;99.90;;;;;;5114466;28;20205;-88
2022/09/16 00:36:25;;;;;;;4.23;1.30;;;14.60;99.90;;;;;;5113850;28;20662;-87
2022/09/16 00:39:05;;;;;;;2.90;1.20;;;14.60;99.90;;;;;;5114498;28;20203;-90
2022/09/16 00:41:32;;;;;;;4.87;1.50;;;14.50;99.90;;;;;;5114192;28;20209;-88
2022/09/16 00:44:04;;;;;;;5.73;2.13;;;14.50;99.90;;;;;;5113973;28;20211;-91
2022/09/16 00:46:43;;;;;;;3.97;1.40;;;14.40;99.90;;;;;;5113741;28;20751;-86
2022/09/16 00:49:18;;;;;;;3.80;1.63;;;14.40;99.90;;;;;;5113807;28;20220;-87
2022/09/16 00:51:46;;;;;;;2.50;1.30;;;14.30;99.90;;;;;;5113769;28;20219;-87
2022/09/16 00:54:22;;;;;;;3.37;1.30;;;14.30;99.90;;;;;;5114008;28;20254;-88
2022/09/16 00:57:13;;;;;;;4.83;1.50;;;14.30;99.90;;;;;;5114196;28;20207;-88
2022/09/16 00:59:47;;;;;;;4.07;1.70;;;14.40;99.90;;;;;;5113731;28;20570;-88
2022/09/16 01:02:28;;;;;;;7.90;1.57;;;14.30;99.90;;;;;;5114004;28;20197;-88
2022/09/16 01:05:02;;;;;;;5.13;1.77;;;14.20;99.90;;;;;;5116101;28;20196;-87
2022/09/16 01:07:40;;;;;;;4.03;1.73;;;14.20;99.90;;;;;;5117327;28;20196;-89
2022/09/16 01:10:09;;;;;;;6.50;1.60;;;14.20;99.90;;;;;;5117530;28;20232;-85
2022/09/16 01:12:38;;;;;;;6.03;1.33;;;14.20;99.90;;;;;;5119778;28;20235;-87
2022/09/16 01:15:12;;;;;;;5.40;1.90;;;14.10;99.90;;;;;;5117745;28;20679;-90
2022/09/16 01:18:06;;;;;;;3.73;1.10;;;14.10;99.90;;;;;;5117643;28;20290;-88
2022/09/16 01:21:03;;;;;;;3.67;1.23;;;14.00;99.90;;;;;;5117290;28;20255;-87
2022/09/16 01:23:59;;;;;;;5.77;1.40;;;13.90;99.90;;;;;;5117720;28;20615;-89
2022/09/16 01:26:50;;;;;;;4.47;1.13;;;14.00;99.90;;;;;;5116056;28;20204;-89
2022/09/16 01:29:45;;;;;;;5.63;1.67;;;14.00;99.90;;;;;;5117113;28;20200;-91
2022/09/16 01:32:27;;;;;;;2.77;1.13;;;13.90;99.90;;;;;;5117066;28;20663;-91
2022/09/16 01:35:03;;;;;;;5.30;1.70;;;13.80;99.90;;;;;;5117045;28;20203;-90
2022/09/16 01:37:45;;;;;;;7.03;1.30;;;13.80;99.90;;;;;;5117201;28;20196;-88
2022/09/16 01:40:27;;;;;;;4.60;1.43;;;13.80;99.90;;;;;;5117034;28;20208;-88
2022/09/16 01:43:07;;;;;;;2.93;1.30;;;13.80;99.90;;;;;;5116972;28;20204;-89
2022/09/16 01:45:45;;;;;;;4.20;1.30;;;13.80;99.90;;;;;;5116992;28;20208;-92
2022/09/16 01:48:24;;;;;;;5.37;1.50;;;13.70;99.90;;;;;;5116742;28;20204;-90
2022/09/16 01:50:59;;;;;;;5.17;1.30;;;13.70;99.90;;;;;;5117342;28;20281;-89
2022/09/16 01:53:32;;;;;;;3.27;1.40;;;13.60;99.90;;;;;;5118370;28;20203;-91
2022/09/16 01:56:09;;;;;;;5.03;1.47;;;13.60;99.90;;;;;;5116997;28;20200;-89
2022/09/16 01:58:43;;;;;;;6.77;1.60;;;13.50;99.90;;;;;;5116917;28;20203;-88
2022/09/16 02:01:15;;;;;;;7.60;1.47;;;13.50;99.90;;;;;;5116263;28;20184;-90
2022/09/16 02:03:52;;;;;;;4.87;1.70;;;13.50;99.90;;;;;;5116268;28;20739;-88
2022/09/16 02:06:24;;;;;;;2.87;1.23;;;13.40;99.90;;;;;;5116894;28;20192;-93
2022/09/16 02:09:01;;;;;;;2.90;1.50;;;13.40;99.90;;;;;;5116676;28;20644;-90
2022/09/16 02:11:30;;;;;;;2.20;1.33;;;13.30;99.90;;;;;;5116107;28;20231;-90
2022/09/16 02:14:06;;;;;;;2.67;1.23;;;13.40;99.90;;;;;;5116297;28;20558;-87
2022/09/16 02:16:39;;;;;;;4.40;1.23;;;13.40;99.90;;;;;;5116518;28;20600;-89
2022/09/16 02:19:15;;;;;;;1.77;1.20;;;13.30;99.90;;;;;;5115840;28;20209;-91
2022/09/16 02:22:00;;;;;;;3.57;1.10;;;13.30;99.90;;;;;;5116224;28;20204;-91
2022/09/16 02:24:31;;;;;;;3.57;1.30;;;13.30;99.90;;;;;;5115899;28;20200;-91
2022/09/16 02:27:04;;;;;;;4.40;1.13;;;13.30;99.90;;;;;;5116100;28;20216;-91
2022/09/16 02:29:42;;;;;;;1.50;0.90;;;13.40;99.90;;;;;;5115574;28;20698;-89
2022/09/16 02:32:15;;;;;;;4.07;1.30;;;13.40;99.90;;;;;;5115841;28;20560;-90
2022/09/16 02:34:50;;;;;;;4.57;1.23;;;13.40;99.90;;;;;;5115922;28;20646;-92
2022/09/16 02:37:31;;;;;;;3.33;1.27;;;13.40;99.90;;;;;;5116031;28;20202;-91
2022/09/16 02:40:04;;;;;;;3.40;1.13;;;13.40;99.90;;;;;;5115575;28;20192;-91
2022/09/16 02:42:34;;;;;;;2.87;1.10;;;13.50;99.90;;;;;;5115684;28;20243;-90
2022/09/16 02:45:04;;;;;;;3.17;1.50;;;13.40;99.90;;;;;;5115323;28;20226;-89
2022/09/16 02:47:42;;;;;;;4.93;1.73;;;13.30;99.90;;;;;;5116436;28;20218;-91
2022/09/16 02:50:15;;;;;;;2.33;1.40;;;13.30;99.90;;;;;;5116587;28;20224;-91
2022/09/16 02:52:57;;;;;;;3.57;1.30;;;13.40;99.90;;;;;;5116188;28;20204;-90
2022/09/16 02:55:49;;;;;;;2.60;0.93;;;13.40;99.90;;;;;;5115731;28;20196;-91
2022/09/16 02:58:25;;;;;;;7.80;1.50;;;13.50;99.90;;;;;;5115475;28;20266;-92
2022/09/16 03:00:55;;;;;;;3.63;1.60;;;13.50;99.90;;;;;;5115197;28;20210;-87
2022/09/16 03:03:22;;;;;;;6.67;1.77;;;13.50;99.90;;;;;;5114676;28;20204;-90
2022/09/16 03:06:14;;;;;;;26.80;3.17;;;13.50;99.90;;;;;;5115000;28;20207;-91
2022/09/16 03:08:45;;;;;;;5.13;1.30;;;13.50;99.90;;;;;;5115219;28;20208;-88
2022/09/16 03:11:39;;;;;;;3.07;1.43;;;13.50;99.90;;;;;;5115109;28;20212;-91
2022/09/16 03:14:20;;;;;;;3.73;1.27;;;13.50;99.90;;;;;;5114977;28;20231;-90
2022/09/16 03:17:08;;;;;;;10.20;1.60;;;13.30;99.90;;;;;;5115140;28;20200;-87
2022/09/16 03:19:43;;;;;;;10.27;1.60;;;13.30;99.90;;;;;;5115141;28;20211;-91
2022/09/16 03:22:24;;;;;;;6.20;1.30;;;13.40;99.90;;;;;;5115089;28;20660;-89
2022/09/16 03:24:59;;;;;;;5.53;1.73;;;13.50;99.90;;;;;;5114849;28;20211;-91
2022/09/16 03:27:34;;;;;;;3.17;1.30;;;13.50;99.90;;;;;;5114679;28;20546;-89
2022/09/16 03:30:05;;;;;;;2.33;1.03;;;13.50;99.90;;;;;;5114386;28;20712;-87
2022/09/16 03:32:43;;;;;;;3.83;1.13;;;13.40;99.90;;;;;;5115148;28;20197;-88
2022/09/16 03:35:29;;;;;;;5.90;1.13;;;13.40;99.90;;;;;;5114887;28;20212;-94
2022/09/16 03:38:08;;;;;;;3.73;1.10;;;13.50;99.90;;;;;;5114730;28;20636;-91
2022/09/16 03:40:38;;;;;;;2.73;1.00;;;13.60;99.90;;;;;;5115209;28;20215;-88
2022/09/16 03:43:11;;;;;;;2.80;0.93;;;13.50;99.90;;;;;;5114841;28;20197;-87
2022/09/16 03:45:44;;;;;;;2.40;1.27;;;13.50;99.90;;;;;;5114790;28;20189;-91
2022/09/16 03:48:14;;;;;;;7.93;1.27;;;13.40;99.90;;;;;;5116173;28;20274;-89
2022/09/16 03:50:45;;;;;;;4.03;1.20;;;13.40;99.90;;;;;;5115581;28;20626;-92
2022/09/16 03:53:13;;;;;;;1.27;1.17;;;13.30;99.90;;;;;;5126718;28;20204;-91
2022/09/16 03:55:42;;;;;;;4.17;1.20;;;13.30;99.90;;;;;;5132729;28;20673;-92
2022/09/16 03:58:10;;;;;;;1.93;0.93;;;13.30;99.90;;;;;;5130751;28;20208;-92
2022/09/16 04:00:38;;;;;;;3.87;1.20;;;13.20;99.90;;;;;;5129634;28;20185;-91
2022/09/16 04:03:08;;;;;;;2.23;1.53;;;13.20;99.90;;;;;;5115956;28;20219;-90
2022/09/16 04:05:35;;;;;;;3.60;1.10;;;13.30;99.90;;;;;;5114959;28;20640;-88
2022/09/16 04:08:04;;;;;;;13.03;1.63;;;13.20;99.90;;;;;;5114466;28;20739;-90
2022/09/16 04:10:39;;;;;;;4.93;1.30;;;13.30;99.90;;;;;;5114852;28;20224;-90
2022/09/16 04:13:05;;;;;;;4.93;1.30;;;13.20;99.90;;;;;;5114461;28;20199;-88
2022/09/16 04:15:37;;;;;;;4.03;1.20;;;13.20;99.90;;;;;;5114376;28;20593;-90
2022/09/16 04:18:06;;;;;;;1.70;1.30;;;13.30;99.90;;;;;;5114503;28;20204;-89
2022/09/16 04:20:38;;;;;;;5.23;1.50;;;13.30;99.90;;;;;;5114445;28;20191;-90
2022/09/16 04:23:24;;;;;;;4.00;1.47;;;13.30;99.90;;;;;;5114526;28;20200;-90
2022/09/16 04:25:58;;;;;;;2.53;1.60;;;13.40;99.90;;;;;;5114682;28;20613;-89
2022/09/16 04:28:35;;;;;;;5.60;1.30;;;13.40;99.90;;;;;;5114272;28;20192;-91
2022/09/16 04:31:10;;;;;;;5.03;1.20;;;13.40;99.90;;;;;;5114217;28;20211;-88
2022/09/16 04:33:38;;;;;;;3.87;1.23;;;13.40;99.90;;;;;;5113873;28;20188;-88
2022/09/16 04:36:12;;;;;;;3.90;1.33;;;13.30;99.90;;;;;;5114130;28;20256;-88
2022/09/16 04:38:40;;;;;;;3.27;1.30;;;13.40;99.90;;;;;;5114644;28;20542;-88
2022/09/16 04:41:11;;;;;;;6.03;1.20;;;13.40;99.90;;;;;;5117776;28;20200;-87
2022/09/16 04:43:40;;;;;;;2.77;1.03;;;13.40;99.90;;;;;;5117616;28;20212;-87
2022/09/16 04:46:09;;;;;;;2.97;1.30;;;13.40;99.90;;;;;;5118153;28;20205;-92
2022/09/16 04:48:40;;;;;;;3.27;0.97;;;13.30;99.90;;;;;;5117882;28;20204;-91
2022/09/16 04:51:13;;;;;;;3.30;1.40;;;13.40;99.90;;;;;;5118210;28;20234;-94
2022/09/16 04:53:43;;;;;;;3.27;1.30;;;13.50;99.90;;;;;;5118325;28;20613;-89
2022/09/16 04:56:15;;;;;;;6.23;2.10;;;13.60;99.90;;;;;;5117847;28;20192;-92
2022/09/16 04:58:45;;;;;;;3.87;1.60;;;13.60;99.90;;;;;;5117668;28;20204;-88
2022/09/16 05:01:15;;;;;;;6.27;1.30;;;13.60;99.90;;;;;;5118132;28;20214;-93
2022/09/16 05:03:45;;;;;;;4.23;1.40;;;13.40;99.90;;;;;;5117897;28;20193;-90
2022/09/16 05:06:16;;;;;;;2.83;1.70;;;13.40;99.90;;;;;;5117435;28;20197;-92
2022/09/16 05:08:46;;;;;;;4.83;1.40;;;13.30;99.90;;;;;;5117637;28;20211;-91
2022/09/16 05:11:19;;;;;;;3.33;1.43;;;13.30;99.90;;;;;;5117830;28;20224;-91
2022/09/16 05:13:50;;;;;;;5.43;1.47;;;13.30;99.90;;;;;;5117391;28;20207;-92
2022/09/16 05:16:21;;;;;;;3.67;1.30;;;13.30;99.90;;;;;;5119009;28;20204;-88
2022/09/16 05:18:49;;;;;;;6.60;1.40;;;13.30;99.90;;;;;;5117629;28;20215;-84
2022/09/16 05:21:18;;;;;;;4.23;1.40;;;13.20;99.90;;;;;;5117076;28;20206;-88
2022/09/16 05:23:47;;;;;;;3.67;1.33;;;13.20;99.90;;;;;;5117084;28;20214;-87
2022/09/16 05:26:20;;;;;;;2.70;1.20;;;13.20;99.90;;;;;;5116750;28;20632;-86
2022/09/16 05:28:53;;;;;;;3.20;1.10;;;13.20;99.90;;;;;;5117195;28;20662;-87
2022/09/16 05:31:23;;;;;;;4.23;1.03;;;13.10;99.90;;;;;;5117088;28;20259;-85
2022/09/16 05:33:55;;;;;;;2.87;1.40;;;13.20;99.90;;;;;;5116910;28;20204;-88
2022/09/16 05:36:24;;;;;;;4.90;1.37;;;13.40;99.90;;;;;;5116724;28;20206;-87
2022/09/16 05:38:53;;;;;;;4.83;1.53;;;13.40;99.90;;;;;;5116587;28;20666;-87
2022/09/16 05:41:22;;;;;;;3.73;1.00;;;13.40;99.90;;;;;;5116784;28;20232;-86
2022/09/16 05:43:58;;;;;;;3.13;1.07;;;13.50;99.90;;;;;;5116749;28;20184;-89
2022/09/16 05:46:28;;;;;;;5.50;1.40;;;13.30;99.90;;;;;;5116075;28;20486;-88
2022/09/16 05:48:57;;;;;;;3.47;1.30;;;13.40;99.90;;;;;;5116490;28;20636;-86
2022/09/16 05:51:25;;;;;;;4.73;1.13;;;13.50;99.90;;;;;;5115685;28;20680;-88
2022/09/16 05:53:54;;;;;;;4.30;0.90;;;13.60;99.90;;;;;;5117009;27;20189;-88
2022/09/16 05:56:30;;;;;;;3.90;1.00;;;13.60;99.90;;;;;;5116437;28;20189;-88
2022/09/16 05:59:00;;;;;;;1.03;0.97;;;13.60;99.90;;;;;;5116607;28;20241;-87
2022/09/16 06:01:28;;;;;;;3.10;1.30;;;13.70;99.90;;;;;;5116788;28;20203;-88
2022/09/16 06:03:57;;;;;;;4.33;1.40;;;13.80;99.90;;;;;;5116407;28;20200;-89
2022/09/16 06:06:27;;;;;;;4.67;1.10;;;13.80;99.90;;;;;;5116273;28;20188;-88
2022/09/16 06:08:56;;;;;;;3.30;1.10;;;13.70;99.90;;;;;;5116272;28;20255;-87
2022/09/16 06:11:26;;;;;;;1.70;0.97;;;13.70;99.90;;;;;;5116280;28;20236;-88
2022/09/16 06:13:55;;;;;;;6.30;1.60;;;13.80;99.90;;;;;;5117601;28;20424;-91
2022/09/16 06:16:27;;;;;;;5.23;0.93;;;13.80;99.90;;;;;;5117698;28;20215;-91
2022/09/16 06:19:00;;;;;;;3.80;1.07;;;13.80;99.90;;;;;;5116437;28;20195;-90
2022/09/16 06:21:33;;;;;;;3.47;0.83;;;13.90;99.90;;;;;;5116343;28;20225;-91
2022/09/16 06:24:02;;;;;;;3.83;1.10;;;13.70;99.90;;;;;;5115730;28;20204;-91
2022/09/16 06:26:36;;;;;;;1.23;0.80;;;13.80;99.90;;;;;;5116216;28;20201;-91
2022/09/16 06:29:04;;;;;;;4.50;1.00;;;13.70;99.90;;;;;;5116431;28;20212;-89
2022/09/16 06:31:35;;;;;;;2.50;1.00;;;13.70;99.90;;;;;;5116017;28;20699;-90
2022/09/16 06:34:04;;;;;;;4.00;1.10;;;13.80;99.90;;;;;;5116209;28;20207;-90
2022/09/16 06:36:35;;;;;;;1.77;0.83;;;13.90;99.90;;;;;;5115939;28;20260;-90
2022/09/16 06:39:04;;;;;;;2.53;0.90;;;13.80;99.90;;;;;;5121113;27;20234;-88
2022/09/16 06:41:35;;;;;;;5.45;1.25;;;13.70;99.90;;;;;;5123447;27;20438;-89
2022/09/16 06:44:04;;;;;;;2.93;1.10;;;13.80;99.90;;;;;;5129646;27;20195;-90
2022/09/16 06:46:34;;;;;;;3.90;1.03;;;13.70;99.90;;;;;;5124137;27;20202;-89
2022/09/16 06:49:03;;;;;;;4.27;0.90;;;13.60;99.90;;;;;;5115906;28;20207;-90
2022/09/16 06:51:31;;;;;;;2.07;1.07;;;13.60;99.90;;;;;;5124915;27;20224;-91
2022/09/16 06:54:00;;;;;;;4.63;1.13;;;13.50;99.90;;;;;;5124817;27;20255;-91
2022/09/16 06:56:28;;;;;;;1.83;0.67;;;13.50;99.90;;;;;;5122307;27;20188;-90
2022/09/16 06:58:58;;;;;;;5.17;1.17;;;13.50;99.90;;;;;;5133008;27;20207;-91
2022/09/16 07:01:30;;;;;;;4.47;0.83;;;13.70;99.90;;;;;;5136116;27;20196;-89
2022/09/16 07:04:04;;;;;;;4.33;1.00;;;13.70;99.90;;;;;;5135673;27;20551;-90
2022/09/16 07:06:34;;;;;;;3.10;1.07;;;13.70;99.90;;;;;;5136155;27;20200;-91
2022/09/16 07:09:07;;;;;;;4.10;0.93;;;13.80;99.90;;;;;;5135722;27;20195;-91
2022/09/16 07:11:37;;;;;;;1.83;0.73;;;13.70;99.90;;;;;;5135455;27;20223;-92
2022/09/16 07:14:10;;;;;;;2.47;0.80;;;13.60;99.90;;;;;;5135538;27;20228;-89
2022/09/16 07:16:44;;;;;;;6.87;1.27;;;13.50;99.90;;;;;;5135960;27;20194;-89
2022/09/16 07:19:13;;;;;;;2.30;0.80;;;13.40;99.90;;;;;;5136094;27;20290;-89
2022/09/16 07:21:41;;;;;;;2.90;1.10;;;13.40;99.90;;;;;;5135944;27;20670;-88
2022/09/16 07:24:09;;;;;;;2.03;1.13;;;13.50;99.90;;;;;;5136535;27;20184;-89
2022/09/16 07:26:43;;;;;;;5.07;1.30;;;13.40;99.90;;;;;;5136405;27;20202;-90
2022/09/16 07:29:15;;;;;;;5.13;1.20;;;13.40;99.90;;;;;;5136040;27;20196;-89
2022/09/16 07:31:44;;;;;;;2.03;1.10;;;13.60;99.90;;;;;;5135719;27;20220;-89
2022/09/16 07:34:12;;;;;;;4.73;1.20;;;13.60;99.90;;;;;;5136141;27;20635;-89
2022/09/16 07:36:43;;;;;;;3.33;1.10;;;13.40;99.90;;;;;;5136176;27;20214;-89
2022/09/16 07:39:10;;;;;;;3.10;1.03;;;13.60;99.90;;;;;;5136324;27;20188;-88
2022/09/16 07:41:39;;;;;;;1.77;0.80;;;13.70;99.90;;;;;;5130202;27;20211;-88
2022/09/16 07:44:08;;;;;;;3.10;1.10;;;13.80;99.90;;;;;;5115882;28;20201;-88
2022/09/16 07:46:37;;;;;;;3.67;1.20;;;13.80;99.90;;;;;;5125654;27;20200;-86
2022/09/16 07:49:07;;;;;;;5.07;1.63;;;13.90;99.90;;;;;;5136073;27;20195;-86
2022/09/16 07:51:35;;;;;;;3.20;1.40;;;13.90;99.90;;;;;;5135791;27;20226;-87
2022/09/16 07:54:04;;;;;;;2.70;0.93;;;14.20;99.90;;;;;;5145712;28;20188;-88
2022/09/16 07:56:33;;;;;;;3.40;1.17;;;14.30;99.90;;;;;;5140840;28;20271;-88
2022/09/16 07:59:00;;;;;;;5.13;1.00;;;14.20;99.90;;;;;;5142941;28;20192;-87
2022/09/16 08:01:29;;;;;;;2.70;1.10;;;14.20;99.90;;;;;;5143082;28;20209;-85
2022/09/16 08:03:57;;;;;;;7.25;1.40;;;14.10;99.90;;;;;;5152874;28;20442;-87
2022/09/16 08:06:27;;;;;;;4.10;1.23;;;13.80;99.90;;;;;;5146189;28;20188;-88
2022/09/16 08:08:57;;;;;;;3.87;1.17;;;13.80;99.90;;;;;;5126157;28;20286;-87
2022/09/16 08:11:23;;;;;;;3.50;1.33;;;13.60;99.90;;;;;;5121653;28;20294;-88
2022/09/16 08:13:50;;;;;;;2.80;1.30;;;13.70;99.90;;;;;;5116934;28;20203;-88
2022/09/16 08:16:19;;;;;;;3.60;1.30;;;13.60;99.90;;;;;;5119519;27;20193;-88
2022/09/16 08:18:47;;;;;;;3.70;1.30;;;13.40;99.90;;;;;;5125087;27;20212;-87
2022/09/16 08:21:18;;;;;;;3.93;1.33;;;13.40;99.90;;;;;;5118689;28;20214;-88
2022/09/16 08:23:46;;;;;;;5.40;1.40;;;13.50;99.90;;;;;;5118556;28;20229;-88
2022/09/16 08:26:14;;;;;;;2.57;1.43;;;13.50;99.90;;;;;;5118209;28;20207;-88
2022/09/16 08:28:43;;;;;;;6.03;1.63;;;13.50;99.90;;;;;;5118331;28;20193;-88
2022/09/16 08:31:10;;;;;;;4.80;1.53;;;13.50;99.90;;;;;;5118761;28;20632;-89
2022/09/16 08:33:39;;;;;;;5.25;1.55;;;13.50;99.90;;;;;;5117154;28;20448;-88
2022/09/16 08:36:10;;;;;;;4.57;1.60;;;13.60;99.90;;;;;;5117853;28;20550;-89
2022/09/16 08:38:38;;;;;;;4.90;1.40;;;13.60;99.90;;;;;;5126399;27;20196;-89
2022/09/16 08:41:22;;;;;;;5.17;1.50;;;13.60;99.90;;;;;;5129396;27;20191;-89
2022/09/16 08:43:56;;;;;;;2.97;1.20;;;13.50;99.90;;;;;;5127943;27;20203;-88
2022/09/16 08:46:30;;;;;;;7.20;2.07;;;13.60;99.90;;;;;;5137890;27;20203;-89
2022/09/16 08:49:19;;;;;;;3.27;1.50;;;13.60;99.90;;;;;;5138687;27;20304;-89
2022/09/16 08:51:46;;;;;;;4.30;1.00;;;13.70;99.90;;;;;;5139055;27;20686;-91
2022/09/16 08:54:24;;;;;;;4.73;1.50;;;13.80;99.90;;;;;;5126191;27;20303;-83
2022/09/16 08:56:55;;;;;;;3.57;1.30;;;13.80;99.90;;;;;;5117424;28;20199;-84
2022/09/16 08:59:28;;;;;;;5.43;1.37;;;13.90;99.90;;;;;;5135404;27;20427;-87
2022/09/16 09:02:03;;;;;;;3.23;1.07;;;13.80;99.90;;;;;;5117619;28;20445;-89
2022/09/16 09:04:30;;;;;;;3.00;1.20;;;13.80;99.90;;;;;;5117734;28;20199;-91
2022/09/16 09:07:09;;;;;;;1.00;0.90;;;13.90;99.90;;;;;;5117492;28;20291;-91
2022/09/16 09:09:52;;;;;;;1.90;1.10;;;13.90;99.90;;;;;;5116995;28;20197;-90
2022/09/16 09:12:29;;;;;;;3.60;1.20;;;13.80;99.90;;;;;;5117064;28;20252;-90
2022/09/16 09:15:07;;;;;;;1.73;0.87;;;14.10;99.90;;;;;;5117440;28;20235;-91
2022/09/16 09:17:45;;;;;;;6.27;1.30;;;14.40;99.90;;;;;;5117798;28;20541;-90
2022/09/16 09:20:22;;;;;;;3.43;1.20;;;14.50;99.90;;;;;;5117300;28;20428;-89
2022/09/16 09:23:06;;;;;;;3.27;1.57;;;14.50;99.90;;;;;;5117020;28;20203;-89
2022/09/16 09:25:40;;;;;;;3.70;1.47;;;14.40;99.90;;;;;;5116185;28;20233;-89
2022/09/16 09:28:22;;;;;;;4.70;1.33;;;14.50;99.90;;;;;;5121925;28;20230;-91
2022/09/16 09:30:57;;;;;;;6.03;4.03;;;14.70;99.90;;;;;;5121128;28;20207;-91
2022/09/16 09:33:33;;;;;;;3.00;1.47;;;14.90;99.90;;;;;;5125089;28;20212;-89
2022/09/16 09:36:32;;;;;;;5.20;1.63;;;14.80;99.90;;;;;;5122116;28;20206;-89
2022/09/16 09:39:29;;;;;;;7.23;1.73;;;14.40;99.90;;;;;;5110324;28;20198;-86
2022/09/16 09:42:03;;;;;;;3.47;1.50;;;14.40;99.90;;;;;;5118550;28;20204;-87
2022/09/16 09:44:47;;;;;;;2.23;1.10;;;14.50;99.90;;;;;;5117260;28;20214;-88
2022/09/16 09:47:21;;;;;;;3.93;1.20;;;14.80;99.90;;;;;;5116956;28;20204;-90
2022/09/16 09:49:52;;;;;;;4.33;1.40;;;14.80;99.90;;;;;;5123080;27;20218;-89
2022/09/16 09:52:26;;;;;;;6.70;1.47;;;14.90;99.90;;;;;;5123618;27;20232;-88
2022/09/16 09:54:59;;;;;;;4.03;1.20;;;15.10;99.90;;;;;;5116947;27;20598;-91
2022/09/16 09:57:36;;;;;;;1.47;0.90;;;15.30;99.90;;;;;;5116600;28;20193;-91
2022/09/16 10:00:12;;;;;;;4.00;1.27;;;15.40;99.90;;;;;;5116863;28;20709;-90
2022/09/16 10:02:46;;;;;;;3.30;0.97;;;15.10;99.90;;;;;;5117428;28;20231;-91
2022/09/16 10:05:21;;;;;;;1.73;0.80;;;14.20;99.90;;;;;;5132530;27;20238;-90
2022/09/16 10:07:50;;;;;;;3.60;0.80;;;13.60;99.90;;;;;;5140624;27;20321;-91
2022/09/16 10:10:20;;;;;;;2.03;1.00;;;13.30;99.90;;;;;;5139604;27;20242;-89
2022/09/16 10:12:53;;;;;;;0.90;0.77;;;13.20;99.90;;;;;;5139596;27;20222;-90
2022/09/16 10:15:27;;;;;;;3.00;1.03;;;13.20;99.90;;;;;;5140744;27;20225;-90
2022/09/16 10:17:56;;;;;;;1.37;0.80;;;13.10;99.90;;;;;;5140427;27;20211;-90
2022/09/16 10:20:29;;;;;;;2.57;0.70;;;13.20;99.90;;;;;;5139819;27;20609;-89
2022/09/16 10:23:02;;;;;;;3.03;1.00;;;13.30;99.90;;;;;;5138951;27;20440;-89
2022/09/16 10:25:33;;;;;;;3.33;1.07;;;13.50;99.90;;;;;;5135154;27;20226;-92
2022/09/16 10:28:05;;;;;;;1.20;0.70;;;13.60;99.90;;;;;;5126089;28;20197;-92
2022/09/16 10:30:45;;;;;;;1.10;1.00;;;13.70;99.90;;;;;;5119078;28;20241;-88
2022/09/16 10:33:19;;;;;;;0.80;0.80;;;13.80;99.90;;;;;;5116237;28;20313;-91
2022/09/16 10:35:55;;;;;;;1.73;0.70;;;13.90;99.90;;;;;;5132443;27;20666;-88
2022/09/16 10:38:24;;;;;;;2.27;0.70;;;14.00;99.90;;;;;;5138170;27;20200;-88
2022/09/16 10:40:53;;;;;;;3.60;0.87;;;14.30;99.90;;;;;;5136702;27;20204;-88
2022/09/16 10:43:20;;;;;;;3.00;0.97;;;14.40;99.90;;;;;;5136183;27;20184;-88
2022/09/16 10:45:52;;;;;;;3.03;0.90;;;14.60;99.90;;;;;;5135546;27;20204;-87
2022/09/16 10:48:21;;;;;;;2.07;0.70;;;14.70;99.90;;;;;;5135886;27;20191;-85
2022/09/16 10:50:56;;;;;;;2.43;1.00;;;14.80;99.90;;;;;;5135444;27;20627;-87
2022/09/16 10:53:29;;;;;;;1.73;0.80;;;15.10;99.90;;;;;;5135639;27;20255;-84
2022/09/16 10:56:00;;;;;;;2.63;1.00;;;15.20;99.90;;;;;;5134818;27;20200;-85
2022/09/16 10:58:28;;;;;;;2.47;0.90;;;15.20;99.90;;;;;;5135652;27;20567;-86
2022/09/16 11:01:11;;;;;;;1.03;0.90;;;15.20;99.90;;;;;;5135018;27;20211;-86
2022/09/16 11:04:20;;;;;;;2.83;0.83;;;15.40;99.90;;;;;;5134985;27;20200;-86
2022/09/16 11:07:00;;;;;;;1.83;0.90;;;15.40;99.90;;;;;;5123946;27;20207;-87
2022/09/16 11:09:34;;;;;;;2.50;0.60;;;14.90;99.90;;;;;;5127672;27;20608;-84
2022/09/16 11:12:28;;;;;;;3.57;0.70;;;14.70;99.90;;;;;;5113904;28;20200;-82
2022/09/16 11:15:04;;;;;;;5.23;1.23;;;14.20;99.90;;;;;;5113816;28;20247;-75
2022/09/16 11:17:50;;;;;;;4.78;1.30;;;13.90;99.90;;;;;;5113341;28;20436;-75
2022/09/16 11:20:40;;;;;;;1.60;1.07;;;13.10;99.90;;;;;;5121442;27;20203;-80
2022/09/16 11:23:19;;;;;;;1.23;1.13;;;12.50;99.90;;;;;;5119087;27;20555;-83
2022/09/16 11:25:52;;;;;;;7.00;3.93;;;12.30;99.90;;;;;;5121387;27;20697;-84
2022/09/16 11:28:44;;;;;;;4.53;1.30;;;12.40;99.90;;;;;;5130867;27;20204;-77
2022/09/16 11:31:21;;;;;;;1.20;0.70;;;12.40;99.90;;;;;;5130459;27;20201;-77
2022/09/16 11:33:55;;;;;;;4.33;1.13;;;12.20;99.90;;;;;;5113089;28;20229;-77
2022/09/16 11:36:45;;;;;;;3.37;0.80;;;12.20;99.90;;;;;;5127920;27;20209;-87
2022/09/16 11:39:34;;;;;;;4.27;1.70;;;12.20;99.90;;;;;;5113625;28;20221;-78
2022/09/16 11:42:10;;;;;;;5.23;2.37;;;12.30;99.90;;;;;;5113854;28;20222;-78
2022/09/16 11:44:43;;;;;;;3.03;0.80;;;12.30;99.90;;;;;;5127485;27;20188;-78
2022/09/16 11:47:25;;;;;;;2.33;0.77;;;12.20;99.90;;;;;;5113211;28;20202;-78
2022/09/16 11:50:06;;;;;;;3.17;1.00;;;12.30;99.90;;;;;;5113125;28;20209;-79
2022/09/16 11:52:56;;;;;;;4.47;1.50;;;12.30;99.90;;;;;;5112962;28;20665;-82
2022/09/16 11:55:37;;;;;;;3.53;3.00;;;12.40;99.90;;;;;;5114007;28;20201;-80
2022/09/16 11:58:24;;;;;;;4.10;1.10;;;12.60;99.90;;;;;;5113318;28;20260;-78
2022/09/16 12:00:54;;;;;;;1.90;0.80;;;12.70;99.90;;;;;;5124212;28;20203;-78
2022/09/16 12:03:28;;;;;;;3.90;1.00;;;12.80;99.90;;;;;;5116462;28;20202;-80
2022/09/16 12:06:03;;;;;;;2.43;0.70;;;13.10;99.90;;;;;;5123757;28;20199;-78
2022/09/16 12:08:36;;;;;;;2.47;1.33;;;13.40;99.90;;;;;;5122009;28;20192;-79
2022/09/16 12:11:09;;;;;;;3.77;0.90;;;13.50;99.90;;;;;;5112905;28;20560;-81
2022/09/16 12:13:39;;;;;;;2.43;1.00;;;13.70;99.90;;;;;;5118810;27;20235;-82
2022/09/16 12:16:11;;;;;;;1.57;0.80;;;14.00;99.90;;;;;;5130346;28;20204;-81
2022/09/16 12:18:42;;;;;;;5.17;1.43;;;14.10;99.90;;;;;;5133521;27;20211;-81
2022/09/16 12:21:15;;;;;;;8.37;1.87;;;14.30;99.90;;;;;;5133022;28;20192;-83
2022/09/16 12:23:44;;;;;;;5.97;1.43;;;14.50;99.90;;;;;;5132752;28;20198;-83
2022/09/16 12:26:15;;;;;;;1.30;0.73;;;14.70;99.90;;;;;;5133409;28;20204;-83
2022/09/16 12:28:49;;;;;;;1.90;1.13;;;14.90;99.90;;;;;;5132859;28;20643;-84
2022/09/16 12:31:21;;;;;;;6.27;1.40;;;14.80;99.90;;;;;;5133339;28;20195;-83
2022/09/16 12:33:53;;;;;;;2.50;0.90;;;14.80;99.90;;;;;;5133328;28;20223;-86
2022/09/16 12:36:27;;;;;;;7.27;0.97;;;14.80;99.90;;;;;;5133257;28;20199;-87
2022/09/16 12:38:54;;;;;;;7.37;1.27;;;15.00;99.90;;;;;;5133546;28;20217;-84
2022/09/16 12:41:41;;;;;;;5.63;1.43;;;15.20;99.90;;;;;;5133212;28;20207;-84
2022/09/16 12:44:38;;;;;;;5.40;1.10;;;15.20;99.90;;;;;;5133486;28;20509;-84
2022/09/16 12:47:36;;;;;;;3.93;0.90;;;15.20;99.90;;;;;;5132385;28;20230;-83
2022/09/16 12:50:38;;;;;;;5.37;1.27;;;14.90;99.90;;;;;;5133548;28;20200;-82
2022/09/16 12:53:34;;;;;;;4.90;0.90;;;15.10;99.90;;;;;;5133420;27;20227;-83
2022/09/16 12:56:08;;;;;;;3.97;1.17;;;15.40;99.90;;;;;;5133420;28;20204;-83
2022/09/16 12:59:05;;;;;;;7.97;1.23;;;15.50;99.90;;;;;;5133716;27;20208;-83
2022/09/16 13:01:37;;;;;;;3.00;0.70;;;15.60;99.90;;;;;;5137130;27;20563;-83
2022/09/16 13:04:12;;;;;;;2.63;1.00;;;15.50;99.90;;;;;;5137365;27;20189;-85
2022/09/16 13:06:46;;;;;;;2.03;0.70;;;15.40;99.90;;;;;;5137279;27;20211;-89
2022/09/16 13:09:22;;;;;;;3.47;0.90;;;15.00;99.90;;;;;;5137554;27;20192;-86
2022/09/16 13:11:54;;;;;;;2.30;0.80;;;14.20;99.90;;;;;;5137251;27;20199;-87
2022/09/16 13:14:24;;;;;;;2.20;0.90;;;13.90;99.90;;;;;;5136908;27;20250;-86
2022/09/16 13:16:56;;;;;;;284.60;40.93;;;13.70;99.90;;;;;;5136998;27;20639;-86
2022/09/16 13:19:41;;;;;;;3.17;0.83;;;13.70;99.90;;;;;;5137435;27;20200;-86
2022/09/16 13:22:21;;;;;;;2.83;0.60;;;13.60;99.90;;;;;;5136753;27;20654;-85